Time;durP1;ratioP1;P1;durP2;ratioP2;P2;SDS_P1;SDS_P2;PMS_P1;PMS_P2;Temp;Humidity;BMP_temperature;BMP_pressure;BME280_temperature;BME280_humidity;BME280_pressure;Samples;Min_cycle;Max_cycle;Signal;HPM_P1;HPM_P2
2021/10/22 00:01:42;;;;;;;18.10;3.17;;;;;;;;;;5010500;28;20645;-68
2021/10/22 00:04:08;;;;;;;15.68;3.55;;;;;;;;;;5012361;28;20112;-67
2021/10/22 00:06:34;;;;;;;14.57;3.13;;;;;;;;;;5012837;28;20053;-67
2021/10/22 00:09:00;;;;;;;13.93;2.95;;;;;;;;;;5010758;28;20132;-67
2021/10/22 00:11:26;;;;;;;19.30;3.75;;;;;;;;;;5011830;28;20034;-67
2021/10/22 00:13:52;;;;;;;18.58;3.03;;;;;;;;;;5006067;28;20064;-67
2021/10/22 00:16:18;;;;;;;22.30;3.92;;;;;;;;;;5010667;28;20022;-68
2021/10/22 00:18:44;;;;;;;20.58;3.70;;;;;;;;;;5010702;28;20047;-67
2021/10/22 00:21:11;;;;;;;16.67;4.20;;;;;;;;;;5010793;28;20034;-68
2021/10/22 00:23:37;;;;;;;26.55;4.30;;;;;;;;;;5012064;28;20030;-67
2021/10/22 00:26:03;;;;;;;17.83;3.65;;;;;;;;;;5012080;28;20092;-67
2021/10/22 00:28:29;;;;;;;13.32;3.38;;;;;;;;;;5010763;28;20030;-67
2021/10/22 00:30:56;;;;;;;13.38;3.28;;;;;;;;;;5003865;28;20100;-68
2021/10/22 00:33:22;;;;;;;12.93;3.40;;;;;;;;;;5027021;28;20113;-68
2021/10/22 00:35:49;;;;;;;17.95;3.78;;;;;;;;;;5009822;28;20097;-68
2021/10/22 00:38:15;;;;;;;12.95;3.85;;;;;;;;;;5006686;28;20108;-67
2021/10/22 00:40:41;;;;;;;17.42;3.40;;;;;;;;;;5006672;28;20033;-68
2021/10/22 00:43:07;;;;;;;17.48;3.53;;;;;;;;;;5011794;28;20022;-68
2021/10/22 00:45:33;;;;;;;21.48;3.90;;;;;;;;;;5012044;28;20018;-67
2021/10/22 00:48:00;;;;;;;19.85;3.72;;;;;;;;;;5010579;28;20113;-67
2021/10/22 00:50:27;;;;;;;16.73;3.67;;;;;;;;;;5011623;28;20029;-67
2021/10/22 00:52:53;;;;;;;30.52;4.53;;;;;;;;;;5011120;28;20162;-68
2021/10/22 00:55:19;;;;;;;19.38;3.45;;;;;;;;;;5011441;28;20101;-67
2021/10/22 00:57:46;;;;;;;16.55;3.10;;;;;;;;;;5011777;28;20108;-67
2021/10/22 01:00:12;;;;;;;21.48;4.03;;;;;;;;;;5010272;28;20054;-67
2021/10/22 01:02:39;;;;;;;21.52;3.97;;;;;;;;;;5010847;28;20030;-67
2021/10/22 01:05:09;;;;;;;12.02;2.97;;;;;;;;;;5011058;28;20040;-67
2021/10/22 01:07:38;;;;;;;22.58;3.85;;;;;;;;;;5010546;28;20034;-67
2021/10/22 01:10:04;;;;;;;19.85;4.30;;;;;;;;;;5009863;28;20032;-67
2021/10/22 01:12:31;;;;;;;19.88;4.10;;;;;;;;;;5011275;28;20037;-67
2021/10/22 01:14:57;;;;;;;17.67;3.47;;;;;;;;;;5003733;28;20027;-67
2021/10/22 01:17:33;;;;;;;20.63;4.18;;;;;;;;;;5025930;28;20038;-68
2021/10/22 01:19:59;;;;;;;19.63;4.80;;;;;;;;;;5009955;28;20026;-67
2021/10/22 01:22:25;;;;;;;21.00;3.45;;;;;;;;;;5010683;28;20111;-67
2021/10/22 01:24:52;;;;;;;17.17;3.78;;;;;;;;;;5009846;28;20030;-67
2021/10/22 01:27:19;;;;;;;23.35;3.88;;;;;;;;;;5011274;28;20037;-67
2021/10/22 01:29:45;;;;;;;17.88;3.88;;;;;;;;;;5009709;28;20064;-68
2021/10/22 01:32:11;;;;;;;26.27;4.28;;;;;;;;;;5011667;28;20030;-68
2021/10/22 01:34:37;;;;;;;21.10;3.15;;;;;;;;;;5009576;28;20433;-68
2021/10/22 01:37:03;;;;;;;23.45;3.97;;;;;;;;;;5007508;28;20022;-67
2021/10/22 01:39:29;;;;;;;20.85;3.47;;;;;;;;;;5008769;28;20032;-67
2021/10/22 01:41:55;;;;;;;14.18;2.58;;;;;;;;;;5010572;28;20030;-68
2021/10/22 01:44:23;;;;;;;17.67;3.28;;;;;;;;;;5022891;28;20041;-67
2021/10/22 01:46:50;;;;;;;16.48;2.90;;;;;;;;;;5009252;28;20080;-67
2021/10/22 01:49:16;;;;;;;17.15;3.40;;;;;;;;;;5009289;28;20092;-67
2021/10/22 01:51:42;;;;;;;13.77;3.38;;;;;;;;;;5010062;28;20036;-69
2021/10/22 01:54:08;;;;;;;19.45;3.63;;;;;;;;;;5009016;28;20029;-67
2021/10/22 01:56:34;;;;;;;19.65;3.85;;;;;;;;;;5010678;28;20022;-67
2021/10/22 01:59:01;;;;;;;17.52;3.58;;;;;;;;;;5008575;28;20030;-68
2021/10/22 02:01:27;;;;;;;15.82;3.75;;;;;;;;;;5009533;28;20022;-67
2021/10/22 02:03:53;;;;;;;16.65;3.33;;;;;;;;;;5008875;28;20026;-68
2021/10/22 02:06:19;;;;;;;15.32;3.25;;;;;;;;;;5010491;28;20045;-67
2021/10/22 02:08:45;;;;;;;21.92;4.65;;;;;;;;;;5008992;28;20034;-67
2021/10/22 02:11:12;;;;;;;25.58;4.47;;;;;;;;;;5011777;28;20048;-67
2021/10/22 02:13:38;;;;;;;20.42;3.78;;;;;;;;;;5010110;28;20018;-66
2021/10/22 02:16:04;;;;;;;19.08;3.03;;;;;;;;;;5010209;28;20033;-67
2021/10/22 02:18:30;;;;;;;19.75;3.65;;;;;;;;;;5007926;28;20073;-67
2021/10/22 02:20:57;;;;;;;21.10;3.42;;;;;;;;;;5010063;28;20113;-67
2021/10/22 02:23:23;;;;;;;23.40;3.65;;;;;;;;;;5009782;28;20049;-68
2021/10/22 02:25:49;;;;;;;26.70;3.28;;;;;;;;;;5010536;28;20026;-67
2021/10/22 02:28:15;;;;;;;14.70;2.78;;;;;;;;;;5009515;28;20036;-67
2021/10/22 02:30:42;;;;;;;22.27;3.65;;;;;;;;;;5008432;28;20034;-67
2021/10/22 02:33:08;;;;;;;18.15;3.42;;;;;;;;;;5010525;28;20026;-67
2021/10/22 02:35:34;;;;;;;18.52;2.95;;;;;;;;;;5010441;28;20053;-68
2021/10/22 02:38:00;;;;;;;17.88;3.15;;;;;;;;;;5008411;28;20504;-67
2021/10/22 02:40:26;;;;;;;18.58;3.42;;;;;;;;;;5010156;28;20030;-67
2021/10/22 02:42:52;;;;;;;17.77;3.63;;;;;;;;;;5010161;28;20180;-67
2021/10/22 02:45:18;;;;;;;21.05;3.88;;;;;;;;;;5010087;28;20038;-67
2021/10/22 02:47:44;;;;;;;17.48;3.47;;;;;;;;;;5010049;28;20056;-67
2021/10/22 02:50:11;;;;;;;23.02;3.13;;;;;;;;;;5009459;28;20030;-67
2021/10/22 02:52:37;;;;;;;22.15;3.25;;;;;;;;;;5009212;28;20032;-66
2021/10/22 02:55:04;;;;;;;15.80;2.83;;;;;;;;;;5009863;28;20057;-68
2021/10/22 02:57:30;;;;;;;22.50;3.17;;;;;;;;;;5010561;28;20021;-67
2021/10/22 02:59:56;;;;;;;13.82;2.67;;;;;;;;;;5008710;28;20034;-66
2021/10/22 03:02:22;;;;;;;14.60;2.63;;;;;;;;;;5008926;28;20028;-67
2021/10/22 03:04:48;;;;;;;20.73;3.25;;;;;;;;;;5009768;28;20030;-67
2021/10/22 03:07:14;;;;;;;20.00;4.25;;;;;;;;;;5004076;28;20494;-67
2021/10/22 03:09:40;;;;;;;16.30;3.28;;;;;;;;;;5008258;28;20034;-67
2021/10/22 03:12:06;;;;;;;19.08;3.30;;;;;;;;;;5012333;28;20030;-68
2021/10/22 03:14:32;;;;;;;33.83;3.35;;;;;;;;;;5013535;28;20032;-66
2021/10/22 03:16:58;;;;;;;18.05;3.15;;;;;;;;;;5012894;28;20025;-67
2021/10/22 03:19:25;;;;;;;16.20;2.60;;;;;;;;;;5012223;28;20030;-67
2021/10/22 03:21:51;;;;;;;11.32;2.75;;;;;;;;;;5013347;28;20042;-68
2021/10/22 03:24:17;;;;;;;17.08;2.70;;;;;;;;;;5013329;28;20386;-67
2021/10/22 03:26:43;;;;;;;20.13;2.45;;;;;;;;;;5013090;28;20418;-68
2021/10/22 03:29:09;;;;;;;16.10;2.70;;;;;;;;;;5027128;28;20037;-68
2021/10/22 03:31:36;;;;;;;11.48;1.95;;;;;;;;;;5011092;28;20033;-69
2021/10/22 03:34:02;;;;;;;13.85;2.70;;;;;;;;;;5015922;28;20394;-68
2021/10/22 03:36:28;;;;;;;18.98;2.95;;;;;;;;;;5012759;28;20018;-68
2021/10/22 03:38:54;;;;;;;16.20;3.63;;;;;;;;;;5010446;28;20081;-67
2021/10/22 03:41:20;;;;;;;15.48;3.00;;;;;;;;;;5013057;28;20117;-68
2021/10/22 03:43:46;;;;;;;18.75;4.10;;;;;;;;;;5013224;28;20034;-68
2021/10/22 03:46:12;;;;;;;16.67;2.67;;;;;;;;;;5011386;28;20029;-67
2021/10/22 03:48:38;;;;;;;11.98;2.45;;;;;;;;;;5011861;28;20101;-65
2021/10/22 03:51:04;;;;;;;17.52;2.95;;;;;;;;;;5028180;28;20510;-68
2021/10/22 03:53:30;;;;;;;18.10;3.47;;;;;;;;;;5010883;28;20083;-67
2021/10/22 03:55:56;;;;;;;13.75;2.45;;;;;;;;;;5012185;28;20029;-67
2021/10/22 03:58:22;;;;;;;25.88;3.20;;;;;;;;;;5011836;28;20029;-67
2021/10/22 04:00:49;;;;;;;10.95;2.03;;;;;;;;;;5012014;28;20037;-72
2021/10/22 04:03:15;;;;;;;16.27;2.65;;;;;;;;;;5012530;28;20033;-67
2021/10/22 04:05:44;;;;;;;17.65;3.40;;;;;;;;;;5012823;28;20107;-68
2021/10/22 04:08:11;;;;;;;14.75;2.92;;;;;;;;;;5008702;28;20072;-67
2021/10/22 04:10:40;;;;;;;20.75;2.75;;;;;;;;;;5009715;28;20026;-67
2021/10/22 04:13:06;;;;;;;16.23;3.30;;;;;;;;;;5012495;28;20430;-67
2021/10/22 04:15:33;;;;;;;15.70;3.03;;;;;;;;;;5012805;28;20463;-66
2021/10/22 04:17:59;;;;;;;21.80;3.97;;;;;;;;;;5010524;28;20061;-68
2021/10/22 04:20:25;;;;;;;23.00;3.08;;;;;;;;;;5012602;28;20425;-67
2021/10/22 04:22:51;;;;;;;20.52;4.07;;;;;;;;;;5010469;28;20533;-67
2021/10/22 04:25:17;;;;;;;18.52;2.78;;;;;;;;;;5012553;28;20037;-68
2021/10/22 04:27:43;;;;;;;23.50;3.10;;;;;;;;;;5024147;28;20042;-67
2021/10/22 04:30:09;;;;;;;18.42;3.50;;;;;;;;;;5011167;28;20037;-67
2021/10/22 04:32:35;;;;;;;12.20;2.50;;;;;;;;;;5012640;28;20422;-68
2021/10/22 04:35:01;;;;;;;14.73;2.45;;;;;;;;;;5012106;28;20104;-67
2021/10/22 04:37:34;;;;;;;21.05;3.08;;;;;;;;;;5011608;28;20101;-68
2021/10/22 04:42:47;;;;;;;18.92;3.38;;;;;;;;;;5011900;28;20044;-68
2021/10/22 04:45:13;;;;;;;14.50;2.70;;;;;;;;;;5012713;28;20029;-68
2021/10/22 04:47:39;;;;;;;21.95;3.00;;;;;;;;;;5011189;28;20030;-68
2021/10/22 04:50:07;;;;;;;16.48;3.20;;;;;;;;;;5010197;28;20026;-66
2021/10/22 04:52:33;;;;;;;15.27;2.33;;;;;;;;;;5011176;28;20034;-68
2021/10/22 04:54:59;;;;;;;16.77;2.10;;;;;;;;;;5012103;28;20383;-67
2021/10/22 04:57:25;;;;;;;20.20;3.25;;;;;;;;;;5011490;28;20445;-66
2021/10/22 04:59:51;;;;;;;16.42;2.58;;;;;;;;;;5008835;28;20045;-67
2021/10/22 05:02:17;;;;;;;19.00;2.80;;;;;;;;;;5012055;28;20021;-66
2021/10/22 05:04:43;;;;;;;11.85;2.65;;;;;;;;;;5014215;28;20034;-67
2021/10/22 05:07:09;;;;;;;23.17;3.50;;;;;;;;;;5011283;28;20030;-66
2021/10/22 05:09:35;;;;;;;12.88;2.55;;;;;;;;;;5008942;28;20083;-66
2021/10/22 05:12:05;;;;;;;15.60;2.33;;;;;;;;;;5010880;28;20232;-67
2021/10/22 05:14:32;;;;;;;17.30;3.40;;;;;;;;;;5011696;28;20029;-66
2021/10/22 05:16:58;;;;;;;16.48;2.60;;;;;;;;;;5007152;28;20022;-66
2021/10/22 05:19:24;;;;;;;14.13;2.78;;;;;;;;;;5010273;28;20026;-67
2021/10/22 05:21:50;;;;;;;14.98;2.63;;;;;;;;;;5010613;28;20160;-67
2021/10/22 05:24:16;;;;;;;15.07;2.45;;;;;;;;;;5010875;28;20658;-67
2021/10/22 05:26:42;;;;;;;13.68;2.78;;;;;;;;;;5010888;28;20037;-66
2021/10/22 05:29:08;;;;;;;15.00;2.65;;;;;;;;;;5010077;28;20027;-66
2021/10/22 05:31:34;;;;;;;16.67;2.88;;;;;;;;;;5009875;28;20026;-66
2021/10/22 05:34:00;;;;;;;18.00;3.17;;;;;;;;;;5005981;28;20037;-67
2021/10/22 05:36:26;;;;;;;16.35;2.90;;;;;;;;;;5004918;28;20026;-67
2021/10/22 05:38:52;;;;;;;19.02;3.03;;;;;;;;;;5008951;28;20084;-67
2021/10/22 05:41:19;;;;;;;14.10;2.60;;;;;;;;;;5024751;28;20044;-66
2021/10/22 05:43:45;;;;;;;11.45;2.50;;;;;;;;;;5006968;28;20025;-65
2021/10/22 05:46:11;;;;;;;13.75;2.58;;;;;;;;;;5009775;28;20732;-67
2021/10/22 05:48:37;;;;;;;13.63;1.88;;;;;;;;;;5007359;28;20029;-66
2021/10/22 05:51:03;;;;;;;11.73;2.47;;;;;;;;;;5010339;28;20037;-67
2021/10/22 05:53:29;;;;;;;20.40;2.75;;;;;;;;;;5010420;28;20482;-66
2021/10/22 05:55:55;;;;;;;16.17;2.53;;;;;;;;;;5008963;28;20030;-66
2021/10/22 05:58:22;;;;;;;16.70;3.10;;;;;;;;;;5009271;28;20052;-66
2021/10/22 06:00:48;;;;;;;14.80;2.22;;;;;;;;;;5003223;28;20034;-66
2021/10/22 06:03:15;;;;;;;11.55;2.63;;;;;;;;;;5011349;28;20042;-66
2021/10/22 06:05:41;;;;;;;18.40;3.03;;;;;;;;;;5024066;28;20518;-67
2021/10/22 06:08:09;;;;;;;10.57;1.70;;;;;;;;;;5008105;28;20034;-67
2021/10/22 06:10:35;;;;;;;14.40;2.53;;;;;;;;;;5006683;28;20109;-66
2021/10/22 06:13:02;;;;;;;20.00;4.18;;;;;;;;;;5010601;28;20041;-66
2021/10/22 06:15:29;;;;;;;22.17;3.85;;;;;;;;;;5010606;28;20438;-67
2021/10/22 06:17:55;;;;;;;13.27;2.47;;;;;;;;;;5008742;28;20720;-66
2021/10/22 06:20:42;;;;;;;16.30;2.63;;;;;;;;;;5009900;28;20026;-66
2021/10/22 06:25:38;;;;;;;15.40;2.75;;;;;;;;;;5006261;28;20042;-66
2021/10/22 06:28:05;;;;;;;22.10;2.90;;;;;;;;;;5023937;28;20076;-66
2021/10/22 06:30:31;;;;;;;17.23;2.85;;;;;;;;;;5010578;28;20030;-66
2021/10/22 06:32:57;;;;;;;15.07;2.90;;;;;;;;;;5028974;28;20053;-66
2021/10/22 06:35:24;;;;;;;13.55;2.47;;;;;;;;;;5012012;28;20022;-66
2021/10/22 06:37:50;;;;;;;12.65;2.70;;;;;;;;;;5011671;28;20105;-67
2021/10/22 06:40:16;;;;;;;12.52;2.72;;;;;;;;;;5009662;28;20109;-67
2021/10/22 06:42:43;;;;;;;14.50;2.22;;;;;;;;;;5008039;28;20022;-66
2021/10/22 06:45:10;;;;;;;12.48;3.05;;;;;;;;;;5010039;28;20062;-65
2021/10/22 06:47:36;;;;;;;12.50;2.55;;;;;;;;;;5025478;28;20030;-66
2021/10/22 06:50:04;;;;;;;15.57;2.67;;;;;;;;;;5011438;28;20505;-66
2021/10/22 06:52:30;;;;;;;10.10;1.98;;;;;;;;;;5011991;28;20017;-66
2021/10/22 06:54:56;;;;;;;23.17;3.95;;;;;;;;;;5014048;28;20105;-66
2021/10/22 06:57:23;;;;;;;18.20;2.45;;;;;;;;;;5012882;28;20048;-66
2021/10/22 06:59:49;;;;;;;20.92;3.50;;;;;;;;;;5012290;28;20037;-67
2021/10/22 07:02:15;;;;;;;21.00;2.90;;;;;;;;;;5123930;22;20136;-67
2021/10/22 07:04:47;;;;;;;19.77;3.72;;;;;;;;;;5033164;28;20025;-67
2021/10/22 07:07:17;;;;;;;13.77;2.45;;;;;;;;;;5031879;28;20017;-67
2021/10/22 07:09:46;;;;;;;9.13;2.17;;;;;;;;;;5035629;28;20037;-66
2021/10/22 07:12:13;;;;;;;19.45;3.08;;;;;;;;;;5048083;28;20080;-67
2021/10/22 07:14:48;;;;;;;21.05;2.95;;;;;;;;;;5033010;28;20101;-67
2021/10/22 07:17:15;;;;;;;18.70;3.33;;;;;;;;;;5026655;28;20474;-67
2021/10/22 07:19:41;;;;;;;16.67;3.40;;;;;;;;;;5030082;28;20022;-67
2021/10/22 07:22:13;;;;;;;12.32;2.45;;;;;;;;;;5033213;28;20041;-67
2021/10/22 07:24:39;;;;;;;12.32;2.60;;;;;;;;;;5032721;28;20032;-68
2021/10/22 07:27:05;;;;;;;17.13;2.97;;;;;;;;;;5032874;28;20167;-68
2021/10/22 07:29:31;;;;;;;13.45;2.38;;;;;;;;;;5032068;28;20025;-67
2021/10/22 07:31:59;;;;;;;6.60;1.65;;;;;;;;;;5035272;28;20029;-67
2021/10/22 07:34:26;;;;;;;10.38;1.98;;;;;;;;;;5036261;28;20021;-67
2021/10/22 07:36:53;;;;;;;13.68;2.22;;;;;;;;;;5031117;28;20040;-66
2021/10/22 07:39:20;;;;;;;11.38;2.78;;;;;;;;;;5031646;28;20021;-74
2021/10/22 07:41:46;;;;;;;14.38;3.42;;;;;;;;;;5033409;28;20059;-68
2021/10/22 07:44:12;;;;;;;13.10;2.72;;;;;;;;;;5032501;28;20025;-67
2021/10/22 07:46:42;;;;;;;15.20;2.88;;;;;;;;;;5032572;28;20602;-67
2021/10/22 07:49:08;;;;;;;12.10;2.70;;;;;;;;;;5031323;28;20044;-67
2021/10/22 07:51:34;;;;;;;15.60;2.83;;;;;;;;;;5032586;28;20503;-67
2021/10/22 07:54:00;;;;;;;17.85;3.42;;;;;;;;;;5047080;28;20029;-67
2021/10/22 07:56:26;;;;;;;11.18;2.83;;;;;;;;;;5032794;28;20029;-68
2021/10/22 07:58:52;;;;;;;12.57;2.97;;;;;;;;;;5029298;28;20108;-66
2021/10/22 08:01:19;;;;;;;11.88;3.22;;;;;;;;;;5034082;28;20041;-67
2021/10/22 08:03:46;;;;;;;10.77;2.35;;;;;;;;;;5031744;28;20033;-68
2021/10/22 08:06:13;;;;;;;21.98;3.33;;;;;;;;;;5035365;28;20021;-68
2021/10/22 08:08:40;;;;;;;18.67;3.28;;;;;;;;;;5044513;28;20037;-67
2021/10/22 08:11:06;;;;;;;17.75;2.70;;;;;;;;;;5031678;28;20034;-67
2021/10/22 08:13:33;;;;;;;16.67;2.88;;;;;;;;;;5031845;28;20026;-67
2021/10/22 08:15:59;;;;;;;14.40;2.78;;;;;;;;;;5038013;28;20044;-68
2021/10/22 08:18:26;;;;;;;15.50;3.03;;;;;;;;;;5030356;28;20029;-69
2021/10/22 08:23:38;;;;;;;20.77;4.50;;;;;;;;;;5009809;28;20044;-68
2021/10/22 08:26:04;;;;;;;21.15;3.38;;;;;;;;;;5035427;28;20100;-67
2021/10/22 08:28:30;;;;;;;29.67;5.75;;;;;;;;;;5033679;28;20060;-67
2021/10/22 08:30:56;;;;;;;17.20;2.72;;;;;;;;;;5032545;28;20033;-67
2021/10/22 08:33:27;;;;;;;15.00;3.10;;;;;;;;;;5030437;28;20530;-68
2021/10/22 08:35:54;;;;;;;17.48;2.25;;;;;;;;;;5036711;28;20037;-68
2021/10/22 08:38:20;;;;;;;17.20;3.25;;;;;;;;;;5023269;28;20013;-67
2021/10/22 08:40:47;;;;;;;12.95;2.97;;;;;;;;;;5031006;28;20385;-67
2021/10/22 08:43:13;;;;;;;20.67;3.90;;;;;;;;;;5031436;28;20499;-68
2021/10/22 08:45:40;;;;;;;20.00;3.10;;;;;;;;;;5036401;28;20040;-68
2021/10/22 08:48:11;;;;;;;30.42;3.38;;;;;;;;;;5029968;28;20017;-67
2021/10/22 08:50:37;;;;;;;16.93;3.17;;;;;;;;;;5030460;28;20487;-67
2021/10/22 08:53:03;;;;;;;13.15;2.22;;;;;;;;;;5030330;28;20059;-68
2021/10/22 08:55:29;;;;;;;23.70;3.53;;;;;;;;;;5036993;28;20030;-67
2021/10/22 08:57:55;;;;;;;23.05;3.33;;;;;;;;;;5028686;28;20026;-67
2021/10/22 09:00:23;;;;;;;24.50;3.28;;;;;;;;;;5028943;28;20037;-68
2021/10/22 09:02:50;;;;;;;19.33;3.47;;;;;;;;;;5026180;28;20042;-66
2021/10/22 09:05:21;;;;;;;14.32;2.67;;;;;;;;;;5044483;28;20029;-72
2021/10/22 09:07:48;;;;;;;20.02;3.85;;;;;;;;;;5025653;28;20059;-66
2021/10/22 09:10:20;;;;;;;20.55;3.55;;;;;;;;;;5027826;28;20089;-67
2021/10/22 09:12:48;;;;;;;22.93;3.83;;;;;;;;;;5028479;28;20029;-67
2021/10/22 09:15:16;;;;;;;22.05;4.47;;;;;;;;;;5030683;28;20526;-69
2021/10/22 09:17:42;;;;;;;15.15;3.28;;;;;;;;;;5029735;28;20071;-67
2021/10/22 09:20:12;;;;;;;15.55;2.80;;;;;;;;;;5045748;28;20036;-67
2021/10/22 09:22:38;;;;;;;20.95;3.25;;;;;;;;;;5032893;28;20446;-68
2021/10/22 09:25:07;;;;;;;15.77;3.67;;;;;;;;;;5030522;28;20398;-68
2021/10/22 09:27:41;;;;;;;18.45;3.10;;;;;;;;;;5045517;28;20032;-67
2021/10/22 09:30:09;;;;;;;17.95;2.65;;;;;;;;;;5019012;28;20052;-66
2021/10/22 09:32:43;;;;;;;21.98;3.75;;;;;;;;;;5027134;28;20030;-66
2021/10/22 09:35:09;;;;;;;19.38;3.17;;;;;;;;;;5024771;28;20021;-67
2021/10/22 09:37:38;;;;;;;22.33;3.15;;;;;;;;;;5024647;28;20400;-66
2021/10/22 09:40:04;;;;;;;22.30;3.08;;;;;;;;;;5028732;28;20038;-67
2021/10/22 09:42:30;;;;;;;13.65;3.78;;;;;;;;;;5027609;28;20407;-67
2021/10/22 09:44:56;;;;;;;15.15;3.03;;;;;;;;;;5025729;28;20116;-66
2021/10/22 09:47:22;;;;;;;19.15;2.65;;;;;;;;;;5029007;28;20156;-67
2021/10/22 09:49:52;;;;;;;17.50;3.60;;;;;;;;;;5026850;28;20032;-66
2021/10/22 09:52:21;;;;;;;22.92;3.60;;;;;;;;;;5031633;28;20031;-66
2021/10/22 09:54:48;;;;;;;26.48;3.65;;;;;;;;;;5030116;28;20031;-66
2021/10/22 09:57:16;;;;;;;18.20;4.47;;;;;;;;;;5028806;28;20040;-66
2021/10/22 09:59:42;;;;;;;18.55;3.08;;;;;;;;;;5040159;28;20356;-66
2021/10/22 10:02:09;;;;;;;13.82;2.63;;;;;;;;;;5027524;28;20474;-68
2021/10/22 10:04:36;;;;;;;27.00;4.75;;;;;;;;;;5029151;28;20030;-69
2021/10/22 10:07:03;;;;;;;20.15;3.03;;;;;;;;;;5037839;28;20108;-67
2021/10/22 10:09:30;;;;;;;15.68;2.88;;;;;;;;;;5031806;28;20473;-67
2021/10/22 10:11:57;;;;;;;14.20;3.03;;;;;;;;;;5029626;28;20030;-67
2021/10/22 10:14:27;;;;;;;20.10;3.72;;;;;;;;;;5045521;28;20104;-67
2021/10/22 10:16:53;;;;;;;17.25;2.83;;;;;;;;;;5029848;28;20036;-66
2021/10/22 10:19:32;;;;;;;11.77;2.65;;;;;;;;;;5028401;28;20021;-66
2021/10/22 10:22:01;;;;;;;23.17;3.80;;;;;;;;;;5050006;28;20405;-66
2021/10/22 10:24:30;;;;;;;5.28;1.65;;;;;;;;;;5038540;28;20494;-69
2021/10/22 10:27:02;;;;;;;24.20;3.78;;;;;;;;;;5033178;28;20052;-67
2021/10/22 10:29:29;;;;;;;20.17;4.05;;;;;;;;;;5030836;28;20100;-66
2021/10/22 10:32:03;;;;;;;22.65;4.75;;;;;;;;;;5031736;28;20480;-67
2021/10/22 10:34:32;;;;;;;20.23;3.13;;;;;;;;;;5041234;28;20086;-66
2021/10/22 10:36:59;;;;;;;14.10;3.08;;;;;;;;;;5035823;28;20036;-66
2021/10/22 10:39:40;;;;;;;21.42;3.28;;;;;;;;;;5039881;28;20078;-67
2021/10/22 10:42:17;;;;;;;30.10;5.05;;;;;;;;;;5039495;28;20060;-67
2021/10/22 10:44:44;;;;;;;21.08;3.22;;;;;;;;;;5041124;28;20049;-67
2021/10/22 10:47:28;;;;;;;25.05;3.90;;;;;;;;;;5041200;28;20021;-67
2021/10/22 10:49:54;;;;;;;13.73;3.28;;;;;;;;;;5029803;28;20037;-66
2021/10/22 10:52:42;;;;;;;17.92;3.70;;;;;;;;;;5040008;28;20053;-68
2021/10/22 10:55:19;;;;;;;23.10;3.85;;;;;;;;;;5033561;28;20395;-67
2021/10/22 10:57:51;;;;;;;20.05;2.35;;;;;;;;;;5032380;28;20057;-67
2021/10/22 11:00:18;;;;;;;9.98;3.03;;;;;;;;;;5046893;28;20021;-66
2021/10/22 11:03:08;;;;;;;17.45;3.13;;;;;;;;;;5034260;28;20045;-66
2021/10/22 11:05:47;;;;;;;21.65;3.50;;;;;;;;;;5025659;28;20381;-69
2021/10/22 11:08:15;;;;;;;22.77;4.15;;;;;;;;;;5028098;28;20022;-69
2021/10/22 11:11:01;;;;;;;17.67;3.55;;;;;;;;;;5045321;28;20029;-67
2021/10/22 11:13:48;;;;;;;21.52;3.50;;;;;;;;;;5043678;28;20057;-67
2021/10/22 11:18:59;;;;;;;15.35;3.63;;;;;;;;;;5029434;28;20118;-67
2021/10/22 11:21:29;;;;;;;32.13;3.53;;;;;;;;;;5032355;28;20017;-67
2021/10/22 11:24:00;;;;;;;32.30;3.33;;;;;;;;;;5030754;28;20053;-67
2021/10/22 11:26:26;;;;;;;17.20;3.83;;;;;;;;;;5046768;28;20035;-67
2021/10/22 11:28:58;;;;;;;18.00;3.35;;;;;;;;;;5026561;28;20026;-67
2021/10/22 11:31:39;;;;;;;28.08;3.92;;;;;;;;;;5028772;28;20099;-68
2021/10/22 11:34:06;;;;;;;17.55;3.50;;;;;;;;;;5032124;28;20017;-67
2021/10/22 11:36:33;;;;;;;20.58;3.83;;;;;;;;;;5032156;28;20542;-67
2021/10/22 11:38:59;;;;;;;17.52;3.03;;;;;;;;;;5035672;28;20034;-67
2021/10/22 11:41:26;;;;;;;28.17;4.25;;;;;;;;;;5035758;28;20044;-67
2021/10/22 11:44:08;;;;;;;24.15;3.90;;;;;;;;;;5038385;28;20025;-67
2021/10/22 11:46:44;;;;;;;13.68;3.30;;;;;;;;;;5037463;28;20045;-66
2021/10/22 11:49:23;;;;;;;19.83;3.67;;;;;;;;;;5028633;28;20462;-66
2021/10/22 11:51:52;;;;;;;19.85;2.80;;;;;;;;;;5030625;28;20029;-67
2021/10/22 11:54:18;;;;;;;15.93;2.72;;;;;;;;;;5031935;28;20053;-66
2021/10/22 11:56:44;;;;;;;25.13;3.25;;;;;;;;;;5030928;28;20030;-67
2021/10/22 11:59:10;;;;;;;16.92;3.13;;;;;;;;;;5029538;28;20648;-66
2021/10/22 12:01:42;;;;;;;17.67;2.30;;;;;;;;;;5031565;28;20531;-67
2021/10/22 12:04:37;;;;;;;20.92;3.53;;;;;;;;;;5025015;28;20022;-67
2021/10/22 12:07:05;;;;;;;23.80;3.85;;;;;;;;;;5025003;28;20032;-66
2021/10/22 12:09:32;;;;;;;10.82;2.70;;;;;;;;;;5029447;28;20262;-67
2021/10/22 12:12:05;;;;;;;23.05;3.58;;;;;;;;;;5036381;28;20026;-66
2021/10/22 12:14:36;;;;;;;20.25;2.90;;;;;;;;;;5030739;28;20021;-66
2021/10/22 12:17:03;;;;;;;9.95;2.50;;;;;;;;;;5030199;28;20027;-67
2021/10/22 12:19:30;;;;;;;22.67;3.85;;;;;;;;;;5032484;28;20453;-67
2021/10/22 12:21:56;;;;;;;19.05;4.32;;;;;;;;;;5037744;28;20093;-66
2021/10/22 12:24:22;;;;;;;17.00;3.78;;;;;;;;;;5032140;28;20391;-66
2021/10/22 12:26:48;;;;;;;18.73;3.50;;;;;;;;;;5031443;28;20419;-66
2021/10/22 12:29:14;;;;;;;20.45;3.90;;;;;;;;;;5028809;28;20017;-66
2021/10/22 12:31:43;;;;;;;25.85;3.33;;;;;;;;;;5045456;28;20412;-66
2021/10/22 12:34:10;;;;;;;18.25;4.43;;;;;;;;;;5028591;28;20079;-66
2021/10/22 12:36:37;;;;;;;13.05;4.00;;;;;;;;;;5034988;28;20422;-66
2021/10/22 12:39:22;;;;;;;16.92;3.72;;;;;;;;;;5028482;28;20088;-66
2021/10/22 12:41:48;;;;;;;22.27;4.03;;;;;;;;;;5030774;28;20033;-66
2021/10/22 12:44:14;;;;;;;21.38;3.95;;;;;;;;;;5029203;28;20492;-66
2021/10/22 12:46:53;;;;;;;14.20;3.78;;;;;;;;;;5038232;28;20034;-67
2021/10/22 12:49:27;;;;;;;24.67;3.97;;;;;;;;;;5027195;28;20088;-66
2021/10/22 12:52:00;;;;;;;15.05;3.47;;;;;;;;;;5045120;28;20029;-66
2021/10/22 12:54:26;;;;;;;19.00;3.20;;;;;;;;;;5030164;28;20189;-66
2021/10/22 12:56:56;;;;;;;19.60;3.33;;;;;;;;;;5030381;28;20036;-66
2021/10/22 12:59:22;;;;;;;21.02;2.97;;;;;;;;;;5027274;28;20395;-66
2021/10/22 13:01:49;;;;;;;14.75;3.53;;;;;;;;;;5052227;28;20098;-66
2021/10/22 13:04:22;;;;;;;19.40;3.63;;;;;;;;;;5028927;28;20028;-66
2021/10/22 13:09:46;;;;;;;32.13;5.40;;;;;;;;;;5038436;28;20033;-67
2021/10/22 13:20:24;;;;;;;14.57;2.58;;;;;;;;;;5026762;28;20298;-66
2021/10/22 13:22:50;;;;;;;24.13;5.72;;;;;;;;;;5026652;28;20026;-67
2021/10/22 13:25:16;;;;;;;19.20;3.50;;;;;;;;;;5030307;28;20029;-67
2021/10/22 13:27:43;;;;;;;16.42;3.47;;;;;;;;;;5044620;28;20048;-67
2021/10/22 13:30:17;;;;;;;17.30;3.47;;;;;;;;;;5027738;28;20080;-66
2021/10/22 13:32:44;;;;;;;19.60;3.22;;;;;;;;;;5042704;28;20120;-66
2021/10/22 13:35:11;;;;;;;15.35;3.55;;;;;;;;;;5041380;28;20531;-67
2021/10/22 13:37:38;;;;;;;21.25;3.45;;;;;;;;;;5028311;28;20500;-66
2021/10/22 13:40:04;;;;;;;13.88;2.67;;;;;;;;;;5025160;28;20032;-66
2021/10/22 13:42:31;;;;;;;16.15;2.67;;;;;;;;;;5025511;28;20103;-69
2021/10/22 13:44:57;;;;;;;18.63;3.22;;;;;;;;;;5026493;28;21539;-66
2021/10/22 13:47:23;;;;;;;17.75;3.65;;;;;;;;;;5029692;28;20096;-67
2021/10/22 13:49:49;;;;;;;14.95;2.88;;;;;;;;;;5032274;28;20100;-67
2021/10/22 13:52:15;;;;;;;25.88;3.53;;;;;;;;;;5026974;28;20040;-67
2021/10/22 13:54:42;;;;;;;13.15;3.22;;;;;;;;;;5029777;28;20104;-67
2021/10/22 13:57:08;;;;;;;14.93;3.08;;;;;;;;;;5027720;28;20219;-67
2021/10/22 13:59:37;;;;;;;18.70;4.53;;;;;;;;;;5024001;28;20612;-67
2021/10/22 14:02:03;;;;;;;19.75;3.40;;;;;;;;;;5025108;28;20048;-66
2021/10/22 14:04:29;;;;;;;17.48;2.80;;;;;;;;;;5029194;28;20102;-67
2021/10/22 14:06:55;;;;;;;24.17;4.20;;;;;;;;;;5027275;28;20061;-67
2021/10/22 14:09:22;;;;;;;27.33;3.20;;;;;;;;;;5025978;28;20018;-67
2021/10/22 14:11:54;;;;;;;19.55;3.72;;;;;;;;;;5025310;28;20083;-67
2021/10/22 14:25:05;;;;;;;20.20;2.78;;;;;;;;;;5007650;28;20100;-66
2021/10/22 14:30:16;;;;;;;15.50;2.45;;;;;;;;;;5002390;28;20053;-66
2021/10/22 14:32:42;;;;;;;15.18;3.35;;;;;;;;;;5008580;28;20108;-66
2021/10/22 14:35:08;;;;;;;21.38;2.83;;;;;;;;;;5008729;28;20399;-67
2021/10/22 14:37:35;;;;;;;21.00;3.10;;;;;;;;;;5010346;28;20041;-67
2021/10/22 14:40:08;;;;;;;13.50;2.33;;;;;;;;;;5002521;28;20399;-66
2021/10/22 14:42:35;;;;;;;16.80;2.63;;;;;;;;;;5004101;28;20048;-67
2021/10/22 14:45:05;;;;;;;32.42;3.95;;;;;;;;;;5007044;28;20066;-67
2021/10/22 14:47:41;;;;;;;17.92;2.78;;;;;;;;;;5021862;28;20445;-67
2021/10/22 14:50:16;;;;;;;13.77;2.03;;;;;;;;;;5003303;28;20034;-66
2021/10/22 14:53:01;;;;;;;16.17;2.50;;;;;;;;;;5006328;28;20045;-66
2021/10/22 14:57:54;;;;;;;19.13;2.83;;;;;;;;;;4998102;28;20030;-67
2021/10/22 15:00:21;;;;;;;16.98;3.47;;;;;;;;;;5007986;28;20026;-67
2021/10/22 15:02:48;;;;;;;16.02;3.17;;;;;;;;;;5007022;28;20676;-67
2021/10/22 15:05:15;;;;;;;18.35;2.88;;;;;;;;;;5008565;28;20052;-66
2021/10/22 15:07:41;;;;;;;22.23;3.53;;;;;;;;;;5006048;28;20030;-67
2021/10/22 15:10:09;;;;;;;19.10;3.00;;;;;;;;;;5005369;28;20032;-66
2021/10/22 15:12:36;;;;;;;15.05;2.22;;;;;;;;;;5008368;28;20036;-66